Time;durP1;ratioP1;P1;durP2;ratioP2;P2;SDS_P1;SDS_P2;PMS_P1;PMS_P2;Temp;Humidity;BMP_temperature;BMP_pressure;BME280_temperature;BME280_humidity;BME280_pressure;Samples;Min_cycle;Max_cycle;Signal;HPM_P1;HPM_P2
2022/04/16 00:00:44;;;;;;;10.30;10.00;;;9.50;99.90;;;;;;5065727;28;20233;-82
2022/04/16 00:03:12;;;;;;;10.30;10.00;;;9.50;99.90;;;;;;5068008;28;20328;-83
2022/04/16 00:05:41;;;;;;;10.50;10.20;;;9.50;99.90;;;;;;5062953;28;20332;-83
2022/04/16 00:08:21;;;;;;;10.30;10.00;;;9.60;99.90;;;;;;5062729;28;20293;-83
2022/04/16 00:10:49;;;;;;;10.63;10.33;;;9.60;99.90;;;;;;5063406;28;20265;-83
2022/04/16 00:13:19;;;;;;;10.40;10.10;;;9.60;99.90;;;;;;5062752;28;20285;-83
2022/04/16 00:15:49;;;;;;;10.63;10.33;;;9.60;99.90;;;;;;5062866;28;20234;-83
2022/04/16 00:18:18;;;;;;;10.60;10.30;;;9.60;99.90;;;;;;5062786;28;20309;-83
2022/04/16 00:20:48;;;;;;;10.70;10.40;;;9.60;99.90;;;;;;5062376;28;20306;-83
2022/04/16 00:23:20;;;;;;;10.70;10.40;;;9.60;99.90;;;;;;5061140;28;20246;-83
2022/04/16 00:25:48;;;;;;;10.43;10.13;;;9.60;99.90;;;;;;5062538;28;20290;-84
2022/04/16 00:28:16;;;;;;;10.43;10.13;;;9.70;99.90;;;;;;5069144;28;20242;-84
2022/04/16 00:30:45;;;;;;;10.23;9.93;;;9.60;99.90;;;;;;5072486;28;20231;-84
2022/04/16 00:33:15;;;;;;;10.50;10.20;;;9.60;99.90;;;;;;5063668;28;20308;-84
2022/04/16 00:35:43;;;;;;;10.50;10.20;;;9.60;99.90;;;;;;5063184;28;20238;-84
2022/04/16 00:38:14;;;;;;;10.60;10.30;;;9.60;99.90;;;;;;5063777;28;20276;-84
2022/04/16 00:40:45;;;;;;;10.67;10.37;;;9.50;99.90;;;;;;5065736;28;20219;-84
2022/04/16 00:43:22;;;;;;;10.57;10.27;;;9.50;99.90;;;;;;5065402;28;20239;-84
2022/04/16 00:45:50;;;;;;;10.97;10.67;;;9.50;99.90;;;;;;5065095;28;20230;-84
2022/04/16 00:48:20;;;;;;;10.67;10.37;;;9.50;99.90;;;;;;5063684;28;20242;-85
2022/04/16 00:50:50;;;;;;;10.30;10.00;;;9.50;99.90;;;;;;5062411;28;20262;-84
2022/04/16 00:53:19;;;;;;;10.50;10.20;;;9.50;99.90;;;;;;5063004;28;20231;-84
2022/04/16 00:56:00;;;;;;;10.60;10.30;;;9.50;99.90;;;;;;5062929;28;20230;-84
2022/04/16 00:58:27;;;;;;;10.87;10.57;;;9.50;99.90;;;;;;5062406;28;20317;-84
2022/04/16 01:00:56;;;;;;;10.40;10.10;;;9.50;99.90;;;;;;5062208;28;20215;-84
2022/04/16 01:03:26;;;;;;;10.40;10.10;;;9.50;99.90;;;;;;5061930;28;20234;-84
2022/04/16 01:05:55;;;;;;;10.60;10.30;;;9.50;99.90;;;;;;5061536;28;20234;-84
2022/04/16 01:08:24;;;;;;;10.53;10.23;;;9.40;99.90;;;;;;5061490;28;20266;-84
2022/04/16 01:11:04;;;;;;;10.63;10.33;;;9.40;99.90;;;;;;5061505;28;20238;-84
2022/04/16 01:13:32;;;;;;;10.40;10.10;;;9.40;99.90;;;;;;5062229;28;20258;-84
2022/04/16 01:16:01;;;;;;;10.67;10.37;;;9.40;99.90;;;;;;5064742;28;20255;-84
2022/04/16 01:18:32;;;;;;;10.67;10.37;;;9.40;99.90;;;;;;5063470;28;20223;-84
2022/04/16 01:21:00;;;;;;;10.60;10.30;;;9.40;99.90;;;;;;5062962;28;20226;-84
2022/04/16 01:23:40;;;;;;;10.50;10.20;;;9.40;99.90;;;;;;5062055;28;20250;-84
2022/04/16 01:26:08;;;;;;;10.70;10.40;;;9.50;99.90;;;;;;5062021;28;20998;-84
2022/04/16 01:28:37;;;;;;;10.53;10.23;;;9.50;99.90;;;;;;5062099;28;20269;-83
2022/04/16 01:31:07;;;;;;;10.40;10.10;;;9.50;99.90;;;;;;5062253;28;20301;-84
2022/04/16 01:33:36;;;;;;;10.50;10.20;;;9.50;99.90;;;;;;5062321;28;20235;-84
2022/04/16 01:36:05;;;;;;;10.47;10.17;;;9.50;99.90;;;;;;5062239;28;20257;-84
2022/04/16 01:38:45;;;;;;;10.53;10.23;;;9.40;99.90;;;;;;5062545;28;20245;-84
2022/04/16 01:41:13;;;;;;;10.57;10.27;;;9.40;99.90;;;;;;5061839;28;20296;-84
2022/04/16 01:43:42;;;;;;;10.40;10.10;;;9.40;99.90;;;;;;5061308;28;20234;-84
2022/04/16 01:46:12;;;;;;;10.37;10.07;;;9.40;99.90;;;;;;5061835;28;20230;-85
2022/04/16 01:48:43;;;;;;;10.43;10.13;;;9.40;99.90;;;;;;5062484;28;20300;-84
2022/04/16 01:51:11;;;;;;;10.80;10.50;;;9.40;99.90;;;;;;5062610;28;20231;-83
2022/04/16 01:53:51;;;;;;;10.43;10.13;;;9.50;99.90;;;;;;5064271;28;20239;-83
2022/04/16 01:56:21;;;;;;;10.30;10.00;;;9.50;99.90;;;;;;5078854;28;20210;-83
2022/04/16 01:58:50;;;;;;;10.53;10.23;;;9.40;99.90;;;;;;5066031;28;20238;-83
2022/04/16 02:01:19;;;;;;;10.30;10.00;;;9.30;99.90;;;;;;5063795;28;20221;-83
2022/04/16 02:03:48;;;;;;;10.40;10.10;;;9.30;99.90;;;;;;5065628;28;20246;-84
2022/04/16 02:06:18;;;;;;;10.30;10.00;;;9.20;99.90;;;;;;5065917;28;20227;-84
2022/04/16 02:09:01;;;;;;;10.30;10.00;;;9.20;99.90;;;;;;5067983;28;20292;-85
2022/04/16 02:11:28;;;;;;;10.60;10.30;;;9.20;99.90;;;;;;5077030;28;20202;-84
2022/04/16 02:13:56;;;;;;;10.63;10.33;;;9.20;99.90;;;;;;5075835;28;20667;-84
2022/04/16 02:16:25;;;;;;;10.40;10.10;;;9.20;99.90;;;;;;5064158;28;20528;-84
2022/04/16 02:18:54;;;;;;;10.40;10.10;;;9.20;99.90;;;;;;5065429;28;20223;-83
2022/04/16 02:21:23;;;;;;;10.50;10.20;;;9.20;99.90;;;;;;5072598;28;20254;-85
2022/04/16 02:24:04;;;;;;;10.30;10.00;;;9.20;99.90;;;;;;5063881;28;20320;-84
2022/04/16 02:26:32;;;;;;;10.30;10.00;;;9.20;99.90;;;;;;5063574;28;20772;-84
2022/04/16 02:29:01;;;;;;;10.30;10.00;;;9.20;99.90;;;;;;5063888;28;20245;-85
2022/04/16 02:31:30;;;;;;;10.50;10.20;;;9.20;99.90;;;;;;5063253;28;20295;-85
2022/04/16 02:33:59;;;;;;;10.20;9.90;;;9.20;99.90;;;;;;5062603;28;20630;-84
2022/04/16 02:36:29;;;;;;;10.23;9.93;;;9.20;99.90;;;;;;5063727;28;20698;-85
2022/04/16 02:39:09;;;;;;;10.10;9.80;;;9.30;99.90;;;;;;5062582;28;20234;-85
2022/04/16 02:41:37;;;;;;;10.10;9.80;;;9.30;99.90;;;;;;5062809;28;20227;-85
2022/04/16 02:47:04;;;;;;;10.23;9.93;;;9.20;99.90;;;;;;5062682;28;20235;-84
2022/04/16 02:47:05;;;;;;;10.50;10.20;;;9.20;99.90;;;;;;5063037;28;20259;-85
2022/04/16 02:49:34;;;;;;;10.60;10.30;;;9.20;99.90;;;;;;5063065;28;20235;-85
2022/04/16 02:52:02;;;;;;;10.33;10.03;;;9.20;99.90;;;;;;5062481;28;20222;-84
2022/04/16 02:54:33;;;;;;;10.40;10.10;;;9.20;99.90;;;;;;5062819;28;20245;-84
2022/04/16 02:57:00;;;;;;;10.50;10.20;;;9.20;99.90;;;;;;5079173;28;20222;-84
2022/04/16 02:59:30;;;;;;;10.43;10.13;;;9.20;99.90;;;;;;5079546;28;20261;-84
2022/04/16 03:01:59;;;;;;;10.40;10.10;;;9.30;99.90;;;;;;5066742;28;20223;-84
2022/04/16 03:04:28;;;;;;;10.47;10.17;;;9.30;99.90;;;;;;5064609;28;20238;-84
2022/04/16 03:06:57;;;;;;;10.30;10.00;;;9.30;99.90;;;;;;5082178;28;20281;-84
2022/04/16 03:09:27;;;;;;;10.30;10.00;;;9.40;99.90;;;;;;5084142;28;20311;-85
2022/04/16 03:12:05;;;;;;;10.50;10.20;;;9.40;99.90;;;;;;5084728;28;20214;-85
2022/04/16 03:17:33;;;;;;;10.03;9.73;;;9.30;99.90;;;;;;5085196;28;20222;-85
2022/04/16 03:20:04;;;;;;;10.20;9.90;;;9.30;99.90;;;;;;5084964;28;20238;-85
2022/04/16 03:22:38;;;;;;;10.33;10.03;;;9.30;99.90;;;;;;5086051;28;20265;-85
2022/04/16 03:25:07;;;;;;;10.30;10.00;;;9.20;99.90;;;;;;5085209;28;20264;-85
2022/04/16 03:27:46;;;;;;;10.43;10.13;;;9.10;99.90;;;;;;5084331;28;20330;-85
2022/04/16 03:30:15;;;;;;;10.40;10.10;;;9.10;99.90;;;;;;5083943;28;20214;-85
2022/04/16 03:32:46;;;;;;;10.53;10.23;;;9.00;99.90;;;;;;5082877;28;20252;-85
2022/04/16 03:35:14;;;;;;;10.17;9.87;;;9.00;99.90;;;;;;5083875;28;20249;-85
2022/04/16 03:37:44;;;;;;;10.50;10.20;;;9.00;99.90;;;;;;5083218;28;20237;-85
2022/04/16 03:40:13;;;;;;;10.40;10.10;;;9.10;99.90;;;;;;5084009;28;20326;-85
2022/04/16 03:42:51;;;;;;;10.23;9.93;;;9.10;99.90;;;;;;5083192;28;20321;-85
2022/04/16 03:45:23;;;;;;;10.40;10.10;;;9.00;99.90;;;;;;5083935;28;20218;-85
2022/04/16 03:47:51;;;;;;;10.70;10.40;;;8.90;99.90;;;;;;5082697;28;20237;-85
2022/04/16 03:50:20;;;;;;;10.50;10.20;;;8.90;99.90;;;;;;5083417;28;20300;-85
2022/04/16 03:52:50;;;;;;;10.30;10.00;;;8.80;99.90;;;;;;5083247;28;20288;-85
2022/04/16 04:03:41;;;;;;;10.67;10.37;;;8.70;99.90;;;;;;5082853;28;20238;-85
2022/04/16 04:06:11;;;;;;;10.40;10.10;;;8.70;99.90;;;;;;5077244;28;20231;-85
2022/04/16 04:08:40;;;;;;;10.40;10.10;;;8.60;99.90;;;;;;5062843;28;20246;-85
2022/04/16 04:11:10;;;;;;;10.60;10.30;;;8.60;99.90;;;;;;5078460;28;20219;-85
2022/04/16 04:13:41;;;;;;;10.73;10.43;;;8.60;99.90;;;;;;5087432;28;20226;-84
2022/04/16 04:16:09;;;;;;;10.53;10.23;;;8.60;99.90;;;;;;5083828;28;20238;-85
2022/04/16 04:18:38;;;;;;;10.63;10.33;;;8.60;99.90;;;;;;5082636;28;20237;-84
2022/04/16 04:21:08;;;;;;;10.67;10.37;;;8.50;99.90;;;;;;5068658;28;20239;-85
2022/04/16 04:23:35;;;;;;;10.70;10.40;;;8.50;99.90;;;;;;5082010;22;20246;-78
2022/04/16 04:26:03;;;;;;;10.80;10.50;;;8.50;99.90;;;;;;5056511;28;20251;-77
2022/04/16 04:28:31;;;;;;;10.70;10.40;;;8.50;99.90;;;;;;5046895;28;20258;-78
2022/04/16 04:30:59;;;;;;;10.60;10.30;;;8.50;99.90;;;;;;5035994;28;20236;-77
2022/04/16 04:33:27;;;;;;;10.80;10.50;;;8.50;99.90;;;;;;5044164;28;20254;-78
2022/04/16 04:35:55;;;;;;;10.40;10.10;;;8.50;99.90;;;;;;5037009;28;20262;-79
2022/04/16 04:38:22;;;;;;;10.30;10.00;;;8.50;99.90;;;;;;5036947;28;20348;-78
2022/04/16 04:40:50;;;;;;;10.47;10.17;;;8.40;99.90;;;;;;5036492;28;20236;-78
2022/04/16 04:43:17;;;;;;;10.53;10.23;;;8.40;99.90;;;;;;5043165;28;20322;-78
2022/04/16 04:45:46;;;;;;;10.60;10.30;;;8.30;99.90;;;;;;5037720;28;20235;-79
2022/04/16 04:48:15;;;;;;;10.70;10.40;;;8.30;99.90;;;;;;5038433;28;20247;-78
2022/04/16 04:50:43;;;;;;;10.70;10.40;;;8.30;99.90;;;;;;5039246;28;20279;-78
2022/04/16 04:53:10;;;;;;;10.40;10.10;;;8.20;99.90;;;;;;5044173;28;20328;-79
2022/04/16 04:55:38;;;;;;;10.43;10.13;;;8.20;99.90;;;;;;5042856;28;20262;-78
2022/04/16 04:58:06;;;;;;;10.80;10.50;;;8.10;99.90;;;;;;5042006;28;20286;-78
2022/04/16 05:00:34;;;;;;;10.70;10.40;;;8.20;99.90;;;;;;5037926;28;20231;-79
2022/04/16 05:03:01;;;;;;;10.60;10.30;;;8.20;99.90;;;;;;5054962;28;20246;-79
2022/04/16 05:05:30;;;;;;;10.40;10.10;;;8.10;99.90;;;;;;5041319;28;20243;-78
2022/04/16 05:07:58;;;;;;;10.50;10.20;;;8.10;99.90;;;;;;5037832;28;20236;-79
2022/04/16 05:10:25;;;;;;;10.60;10.30;;;8.10;99.90;;;;;;5037626;28;20239;-78
2022/04/16 05:12:58;;;;;;;10.57;10.27;;;8.10;99.90;;;;;;5035656;28;20294;-78
2022/04/16 05:15:26;;;;;;;10.67;10.37;;;8.10;99.90;;;;;;5035950;28;20234;-78
2022/04/16 05:17:54;;;;;;;10.40;10.10;;;8.00;99.90;;;;;;5035812;28;20227;-78
2022/04/16 05:20:22;;;;;;;10.40;10.10;;;8.00;99.90;;;;;;5035709;28;20223;-78
2022/04/16 05:22:51;;;;;;;10.60;10.30;;;8.00;99.90;;;;;;5037138;28;20231;-78
2022/04/16 05:25:18;;;;;;;10.40;10.10;;;8.00;99.90;;;;;;5045595;28;20291;-79
2022/04/16 05:27:46;;;;;;;10.13;9.83;;;7.90;99.90;;;;;;5058174;28;20240;-79
2022/04/16 05:30:22;;;;;;;10.50;10.20;;;8.00;99.90;;;;;;5059056;28;20243;-78
2022/04/16 05:32:51;;;;;;;10.30;10.00;;;8.00;99.90;;;;;;5059156;28;20243;-78
2022/04/16 05:35:20;;;;;;;11.00;10.70;;;8.10;99.90;;;;;;5068642;28;20450;-79
2022/04/16 05:37:48;;;;;;;10.47;10.17;;;8.10;99.90;;;;;;5077496;28;20234;-80
2022/04/16 05:40:21;;;;;;;10.37;10.07;;;8.00;99.90;;;;;;5078678;28;20218;-80
2022/04/16 05:42:49;;;;;;;10.60;10.30;;;8.00;99.90;;;;;;5076517;28;20227;-80
2022/04/16 05:45:16;;;;;;;10.60;10.30;;;8.10;99.90;;;;;;5080263;28;20238;-79
2022/04/16 05:47:45;;;;;;;10.77;10.47;;;8.20;99.90;;;;;;5079916;28;20218;-78
2022/04/16 05:50:14;;;;;;;10.60;10.30;;;8.10;99.90;;;;;;5081434;28;20277;-80
2022/04/16 05:52:42;;;;;;;10.40;10.10;;;8.20;99.90;;;;;;5080675;28;20217;-79
2022/04/16 05:55:11;;;;;;;10.53;10.23;;;8.10;99.90;;;;;;5080986;28;20286;-80
2022/04/16 05:57:41;;;;;;;10.40;10.10;;;8.00;99.90;;;;;;5080928;28;20230;-80
2022/04/16 06:00:13;;;;;;;10.50;10.20;;;8.00;99.90;;;;;;5081047;28;20245;-80
2022/04/16 06:02:42;;;;;;;10.40;10.10;;;8.00;99.90;;;;;;5074484;28;20226;-80
2022/04/16 06:05:10;;;;;;;10.47;10.17;;;7.90;99.90;;;;;;5073809;28;20261;-80
2022/04/16 06:07:38;;;;;;;10.30;10.00;;;8.00;99.90;;;;;;5068158;28;20271;-80
2022/04/16 06:10:07;;;;;;;10.50;10.20;;;8.10;99.90;;;;;;5064776;28;20234;-80
2022/04/16 06:12:34;;;;;;;10.50;10.20;;;8.10;99.90;;;;;;5063015;28;20219;-80
2022/04/16 06:15:04;;;;;;;10.60;10.30;;;8.10;99.90;;;;;;5062671;28;20234;-80
2022/04/16 06:17:31;;;;;;;10.20;9.90;;;8.20;99.90;;;;;;5063589;28;20281;-81
2022/04/16 06:19:59;;;;;;;10.53;10.23;;;8.20;99.90;;;;;;5062533;28;20265;-80
2022/04/16 06:22:26;;;;;;;10.50;10.20;;;8.30;99.90;;;;;;5065027;28;20227;-80
2022/04/16 06:24:54;;;;;;;10.57;10.27;;;8.30;99.90;;;;;;5069251;28;20292;-80
2022/04/16 06:27:22;;;;;;;10.30;10.00;;;8.30;99.90;;;;;;5062125;28;20231;-79
2022/04/16 06:29:50;;;;;;;10.10;9.80;;;8.40;99.90;;;;;;5051240;28;20220;-80
2022/04/16 06:32:19;;;;;;;10.07;9.77;;;8.40;99.90;;;;;;5050309;28;20225;-82
2022/04/16 06:34:47;;;;;;;10.40;10.10;;;8.50;99.90;;;;;;5051855;28;20302;-82
2022/04/16 06:37:14;;;;;;;10.37;10.07;;;8.40;99.90;;;;;;5058798;28;20234;-80
2022/04/16 06:39:42;;;;;;;10.57;10.27;;;8.30;99.90;;;;;;5064279;28;20226;-79
2022/04/16 06:42:13;;;;;;;10.43;10.13;;;8.30;99.90;;;;;;5064024;28;20239;-79
2022/04/16 06:44:40;;;;;;;10.50;10.20;;;8.30;99.90;;;;;;5063906;28;20278;-82
2022/04/16 06:47:08;;;;;;;10.60;10.30;;;8.30;99.90;;;;;;5067574;28;20254;-80
2022/04/16 06:49:37;;;;;;;10.70;10.40;;;8.30;99.90;;;;;;5065118;28;20357;-80
2022/04/16 06:52:06;;;;;;;10.57;10.27;;;8.30;99.90;;;;;;5062985;28;20237;-79
2022/04/16 06:54:34;;;;;;;10.63;10.33;;;8.20;99.90;;;;;;5063584;28;20239;-79
2022/04/16 06:57:01;;;;;;;10.50;10.20;;;8.20;99.90;;;;;;5076555;28;20250;-79
2022/04/16 06:59:29;;;;;;;10.20;9.90;;;8.20;99.90;;;;;;5079068;28;20286;-79
2022/04/16 07:01:57;;;;;;;10.33;10.03;;;8.20;99.90;;;;;;5079784;28;21084;-78
2022/04/16 07:04:24;;;;;;;10.30;10.00;;;8.10;99.90;;;;;;5075352;28;20223;-77
2022/04/16 07:06:53;;;;;;;10.40;10.10;;;8.00;99.90;;;;;;5063004;28;20239;-79
2022/04/16 07:09:21;;;;;;;10.37;10.07;;;8.00;99.90;;;;;;5078730;28;20249;-79
2022/04/16 07:11:48;;;;;;;10.40;10.10;;;8.00;99.90;;;;;;5080855;28;20234;-79
2022/04/16 07:14:16;;;;;;;10.80;10.50;;;7.90;99.90;;;;;;5081141;28;20223;-77
2022/04/16 07:16:44;;;;;;;10.50;10.20;;;7.90;99.90;;;;;;5081158;28;20210;-78
2022/04/16 07:19:11;;;;;;;10.50;10.20;;;7.90;99.90;;;;;;5080787;28;20219;-79
2022/04/16 07:21:39;;;;;;;10.60;10.30;;;7.80;99.90;;;;;;5080060;28;20205;-80
2022/04/16 07:24:08;;;;;;;10.90;10.60;;;7.80;99.90;;;;;;5080755;28;20322;-80
2022/04/16 07:26:36;;;;;;;10.67;10.37;;;7.90;99.90;;;;;;5079979;28;20222;-78
2022/04/16 07:29:04;;;;;;;10.30;10.00;;;7.80;99.90;;;;;;5080736;28;20218;-78
2022/04/16 07:31:31;;;;;;;10.37;10.07;;;7.90;99.90;;;;;;5080394;28;20211;-78
2022/04/16 07:34:02;;;;;;;10.10;9.80;;;7.90;99.90;;;;;;5080617;28;20233;-78
2022/04/16 07:36:30;;;;;;;10.10;9.80;;;8.00;99.90;;;;;;5080200;28;20242;-79
2022/04/16 07:38:58;;;;;;;10.40;10.10;;;8.00;99.90;;;;;;5060947;28;20288;-78
2022/04/16 07:41:27;;;;;;;10.13;9.83;;;8.00;99.90;;;;;;5058242;28;20246;-78
2022/04/16 07:43:55;;;;;;;10.20;9.90;;;7.90;99.90;;;;;;5058659;28;20235;-79
2022/04/16 07:46:25;;;;;;;10.17;9.87;;;8.00;99.90;;;;;;5068984;28;20235;-80
2022/04/16 07:48:53;;;;;;;10.10;9.80;;;8.10;99.90;;;;;;5058119;28;20239;-79
2022/04/16 07:51:21;;;;;;;10.20;9.90;;;8.10;99.90;;;;;;5051059;28;20227;-78
2022/04/16 07:53:49;;;;;;;10.60;10.30;;;8.20;99.90;;;;;;5060303;28;20234;-79
2022/04/16 07:56:17;;;;;;;10.40;10.10;;;8.30;99.90;;;;;;5059313;28;20230;-79
2022/04/16 07:58:47;;;;;;;10.10;9.80;;;8.40;99.90;;;;;;5054056;28;20229;-78
2022/04/16 08:01:16;;;;;;;10.33;10.03;;;8.40;99.90;;;;;;5057087;28;20226;-79
2022/04/16 08:03:43;;;;;;;10.60;10.30;;;8.40;99.90;;;;;;5055867;28;20238;-79
2022/04/16 08:06:11;;;;;;;10.47;10.17;;;8.20;99.90;;;;;;5039427;28;20228;-79
2022/04/16 08:08:39;;;;;;;10.90;10.60;;;8.20;99.90;;;;;;5040873;28;20232;-83
2022/04/16 08:11:07;;;;;;;10.40;10.10;;;8.50;99.90;;;;;;5041040;28;20292;-81
2022/04/16 08:13:35;;;;;;;10.50;10.20;;;8.60;99.90;;;;;;5041231;28;20227;-83
2022/04/16 08:16:09;;;;;;;10.60;10.30;;;8.80;99.90;;;;;;5045222;28;20276;-84
2022/04/16 08:18:37;;;;;;;10.50;10.20;;;8.60;99.90;;;;;;5052631;28;20259;-81
2022/04/16 08:21:05;;;;;;;10.17;9.87;;;8.60;99.90;;;;;;5061089;28;20234;-82
2022/04/16 08:23:40;;;;;;;10.30;10.00;;;8.40;99.90;;;;;;5060946;28;20243;-83
2022/04/16 08:26:10;;;;;;;10.27;9.97;;;8.20;99.90;;;;;;5065153;28;20226;-83
2022/04/16 08:28:38;;;;;;;10.50;10.20;;;8.30;99.90;;;;;;5069114;28;20241;-82
2022/04/16 08:31:08;;;;;;;10.40;10.10;;;8.40;99.90;;;;;;5062511;28;20252;-82
2022/04/16 08:33:37;;;;;;;10.80;10.50;;;8.50;99.90;;;;;;5062557;28;20231;-82
2022/04/16 08:36:08;;;;;;;10.30;10.00;;;8.60;99.90;;;;;;5062019;28;20238;-81
2022/04/16 08:38:35;;;;;;;10.47;10.17;;;8.90;99.90;;;;;;5066690;28;20249;-79
2022/04/16 08:41:06;;;;;;;10.17;9.87;;;9.20;99.90;;;;;;5068939;28;20251;-81
2022/04/16 08:43:37;;;;;;;10.20;9.90;;;9.40;99.90;;;;;;5056893;28;20219;-83
2022/04/16 08:46:09;;;;;;;10.20;9.90;;;9.50;99.90;;;;;;5068947;28;20235;-82
2022/04/16 08:48:42;;;;;;;10.30;10.00;;;9.60;99.90;;;;;;5076257;28;20207;-82
2022/04/16 08:51:22;;;;;;;10.20;9.90;;;9.50;99.90;;;;;;5074940;28;20273;-83
2022/04/16 08:53:50;;;;;;;10.20;9.90;;;9.10;99.90;;;;;;5075276;28;20301;-82
2022/04/16 08:56:22;;;;;;;10.30;10.00;;;9.00;99.90;;;;;;5074661;28;20234;-82
2022/04/16 08:58:49;;;;;;;10.90;10.60;;;9.20;99.90;;;;;;5074407;28;20207;-82
2022/04/16 09:01:20;;;;;;;10.50;10.20;;;9.40;99.90;;;;;;5075879;28;20219;-85
2022/04/16 09:03:55;;;;;;;10.37;10.07;;;9.60;99.90;;;;;;5079338;28;20249;-82
2022/04/16 09:06:25;;;;;;;10.30;10.00;;;9.80;99.90;;;;;;5077456;28;20289;-79
2022/04/16 09:08:53;;;;;;;10.50;10.20;;;9.80;99.90;;;;;;5077429;28;20230;-81
2022/04/16 09:11:23;;;;;;;10.60;10.30;;;9.80;99.90;;;;;;5076848;28;20219;-82
2022/04/16 09:13:56;;;;;;;10.17;9.87;;;9.90;99.90;;;;;;5077476;28;20215;-81
2022/04/16 09:16:25;;;;;;;10.27;9.97;;;10.20;99.90;;;;;;5077019;28;20258;-82
2022/04/16 09:18:55;;;;;;;10.20;9.90;;;10.30;99.90;;;;;;5075026;28;20227;-81
2022/04/16 09:21:26;;;;;;;10.47;10.17;;;10.10;99.90;;;;;;5063695;28;20223;-80
2022/04/16 09:24:00;;;;;;;10.23;9.93;;;10.30;99.90;;;;;;5062950;28;20239;-80
2022/04/16 09:26:33;;;;;;;10.23;9.93;;;10.30;99.90;;;;;;5063250;28;20214;-80
2022/04/16 09:29:08;;;;;;;10.20;9.90;;;10.60;99.90;;;;;;5062444;28;20234;-80
2022/04/16 09:31:39;;;;;;;10.37;10.07;;;10.60;99.90;;;;;;5061113;28;20272;-81
2022/04/16 09:34:08;;;;;;;10.57;10.27;;;10.60;99.90;;;;;;5061278;28;20266;-80
2022/04/16 09:36:40;;;;;;;10.53;10.23;;;10.60;99.90;;;;;;5060782;28;20239;-80
2022/04/16 09:39:10;;;;;;;10.60;10.30;;;10.80;99.90;;;;;;5061290;28;20218;-81
2022/04/16 09:41:41;;;;;;;10.80;10.50;;;11.10;99.90;;;;;;5061091;28;20215;-81
2022/04/16 09:44:20;;;;;;;10.47;10.17;;;11.50;99.90;;;;;;5068899;28;20242;-81
2022/04/16 09:46:50;;;;;;;10.83;10.53;;;11.80;99.90;;;;;;5068890;28;20234;-81
2022/04/16 09:49:19;;;;;;;10.60;10.30;;;12.00;99.90;;;;;;5066032;28;20238;-81
2022/04/16 09:51:49;;;;;;;10.50;10.20;;;12.00;99.90;;;;;;5061478;28;20227;-81
2022/04/16 09:54:18;;;;;;;10.70;10.40;;;12.00;99.90;;;;;;5060510;28;20227;-80
2022/04/16 09:56:47;;;;;;;10.77;10.47;;;11.60;99.90;;;;;;5061608;28;20226;-80
2022/04/16 09:59:17;;;;;;;10.97;10.67;;;11.60;99.90;;;;;;5060550;28;20301;-81
2022/04/16 10:01:48;;;;;;;11.03;10.73;;;12.00;99.90;;;;;;5059947;28;20231;-81
2022/04/16 10:04:17;;;;;;;10.60;10.30;;;12.10;99.90;;;;;;5059892;28;20243;-80
2022/04/16 10:06:48;;;;;;;10.87;10.57;;;12.30;99.90;;;;;;5061109;28;20231;-80
2022/04/16 10:09:17;;;;;;;11.10;10.80;;;12.50;99.90;;;;;;5059583;28;20219;-80
2022/04/16 10:14:43;;;;;;;11.17;10.87;;;12.90;99.90;;;;;;5060508;28;20230;-80
2022/04/16 10:17:25;;;;;;;10.50;10.20;;;12.80;99.90;;;;;;5059623;28;20292;-80
2022/04/16 10:19:55;;;;;;;10.67;10.37;;;12.80;99.90;;;;;;5059587;28;20233;-80
2022/04/16 10:22:27;;;;;;;10.67;10.37;;;13.00;99.90;;;;;;5060582;28;20234;-80
2022/04/16 10:24:57;;;;;;;10.83;10.53;;;13.20;99.90;;;;;;5083660;22;20261;-85
2022/04/16 10:31:06;;;;;;;10.47;10.17;;;13.30;99.90;;;;;;5060271;28;20292;-86
2022/04/16 10:38:22;;;;;;;10.40;10.10;;;13.70;99.90;;;;;;4995158;28;20221;-85
2022/04/16 10:41:09;;;;;;;10.80;10.50;;;14.10;99.90;;;;;;4986682;28;20222;-83
2022/04/16 10:46:24;;;;;;;10.73;10.43;;;14.40;99.90;;;;;;5033038;28;20699;-82
2022/04/16 10:49:01;;;;;;;10.82;10.52;;;14.50;99.90;;;;;;5058855;28;20239;-82
2022/04/16 10:51:41;;;;;;;10.85;10.55;;;14.60;99.90;;;;;;5060654;28;20259;-83
2022/04/16 10:54:10;;;;;;;10.80;10.50;;;14.40;99.90;;;;;;5049423;28;20239;-85
2022/04/16 10:56:47;;;;;;;10.43;10.13;;;14.70;99.90;;;;;;5048751;28;20270;-84
2022/04/16 10:59:17;;;;;;;10.70;10.40;;;14.80;99.90;;;;;;5047249;28;20239;-85
2022/04/16 11:01:58;;;;;;;10.52;10.23;;;15.10;99.90;;;;;;5045122;28;20261;-84
2022/04/16 11:04:25;;;;;;;10.30;10.00;;;15.50;99.90;;;;;;5045379;28;20250;-83
2022/04/16 11:07:04;;;;;;;10.20;9.90;;;15.50;99.90;;;;;;5044911;28;20220;-84
2022/04/16 11:09:41;;;;;;;10.30;10.00;;;15.60;99.90;;;;;;5043882;28;20294;-83
2022/04/16 11:14:59;;;;;;;10.40;10.10;;;15.70;99.90;;;;;;5043309;28;20219;-84
2022/04/16 11:17:27;;;;;;;10.30;10.00;;;15.60;99.90;;;;;;5044290;28;20239;-84
2022/04/16 11:20:06;;;;;;;10.27;9.98;;;15.50;99.90;;;;;;5045230;28;20294;-84
2022/04/16 11:22:35;;;;;;;10.45;10.15;;;15.30;99.90;;;;;;5045199;28;20223;-83
2022/04/16 11:25:14;;;;;;;10.75;10.45;;;15.20;99.90;;;;;;5057963;28;20269;-83
2022/04/16 11:36:12;;;;;;;10.52;10.23;;;16.10;99.90;;;;;;5043488;28;20216;-83
2022/04/16 11:38:41;;;;;;;10.85;10.55;;;16.10;99.90;;;;;;5043423;28;20230;-84
2022/04/16 11:41:11;;;;;;;10.70;10.40;;;16.10;99.90;;;;;;5036971;28;20256;-81
2022/04/16 11:43:51;;;;;;;10.63;10.32;;;16.50;99.90;;;;;;5041240;28;20223;-85
2022/04/16 11:46:29;;;;;;;10.75;10.45;;;16.90;99.90;;;;;;5042473;28;20289;-84
2022/04/16 11:49:00;;;;;;;10.70;10.40;;;17.00;99.90;;;;;;5035288;28;20231;-82
2022/04/16 11:51:37;;;;;;;10.68;10.38;;;17.40;99.90;;;;;;5042759;28;20223;-82
2022/04/16 11:54:06;;;;;;;10.55;10.25;;;17.40;99.90;;;;;;5036817;28;20235;-81
2022/04/16 11:56:36;;;;;;;10.93;10.63;;;17.30;99.90;;;;;;5040133;28;20242;-83
2022/04/16 11:59:14;;;;;;;10.70;10.40;;;17.20;99.90;;;;;;5043502;28;20227;-84
2022/04/16 12:01:45;;;;;;;10.55;10.25;;;16.80;99.90;;;;;;5042872;28;20295;-83
2022/04/16 12:04:21;;;;;;;10.40;10.10;;;16.90;99.90;;;;;;5043302;28;20231;-85
2022/04/16 12:07:15;;;;;;;10.38;10.07;;;16.40;99.90;;;;;;5043343;28;20287;-84
2022/04/16 12:09:49;;;;;;;10.70;10.40;;;16.80;99.90;;;;;;5042853;28;20758;-84
2022/04/16 12:12:35;;;;;;;10.30;10.00;;;17.10;99.90;;;;;;5043295;28;20242;-85
2022/04/16 12:15:42;;;;;;;10.52;10.23;;;17.10;99.90;;;;;;5043130;28;20267;-84
2022/04/16 12:18:37;;;;;;;10.40;10.10;;;17.20;99.90;;;;;;5036976;28;20227;-85
2022/04/16 12:21:12;;;;;;;10.68;10.38;;;17.30;99.90;;;;;;5034474;28;20224;-83
2022/04/16 12:23:43;;;;;;;10.77;10.48;;;17.60;99.90;;;;;;5040126;28;20231;-81
2022/04/16 12:26:15;;;;;;;10.60;10.30;;;17.80;99.90;;;;;;5021330;28;20244;-81
2022/04/16 12:28:52;;;;;;;10.60;10.30;;;17.20;99.90;;;;;;5022184;28;20327;-83
2022/04/16 12:31:29;;;;;;;10.60;10.30;;;17.20;99.90;;;;;;5021114;28;20271;-78
2022/04/16 12:41:29;;;;;;;10.30;10.00;;;16.70;99.90;;;;;;4928770;28;20237;-78
2022/04/16 12:44:07;;;;;;;10.60;10.30;;;17.20;99.90;;;;;;5041122;28;20227;-80
2022/04/16 12:46:42;;;;;;;10.43;10.13;;;17.40;99.90;;;;;;5040938;28;20235;-80
2022/04/16 12:49:17;;;;;;;10.30;10.00;;;17.40;99.90;;;;;;5040639;28;20337;-80
2022/04/16 13:01:20;;;;;;;10.32;10.02;;;17.50;99.90;;;;;;5031611;28;21035;-80
2022/04/16 13:03:55;;;;;;;10.38;10.07;;;17.00;99.90;;;;;;5043310;28;20243;-80
2022/04/16 13:06:23;;;;;;;10.38;10.07;;;17.40;99.90;;;;;;5042321;28;20250;-80
2022/04/16 13:08:53;;;;;;;10.38;10.07;;;17.30;99.90;;;;;;5041114;28;20240;-80
2022/04/16 13:11:21;;;;;;;10.35;10.05;;;17.00;99.90;;;;;;5040534;28;20247;-80
2022/04/16 13:13:49;;;;;;;10.20;9.90;;;17.30;99.90;;;;;;5041963;28;20224;-81
2022/04/16 13:16:18;;;;;;;10.60;10.30;;;17.50;99.90;;;;;;5043271;28;20227;-81
2022/04/16 13:18:48;;;;;;;10.65;10.35;;;17.70;99.90;;;;;;5041518;28;20227;-81
2022/04/16 13:21:44;;;;;;;10.70;10.40;;;17.80;99.90;;;;;;5040369;28;20228;-81
2022/04/16 13:27:13;;;;;;;10.30;10.00;;;17.90;99.90;;;;;;5044439;28;20214;-81
2022/04/16 13:29:41;;;;;;;10.32;10.02;;;17.80;99.90;;;;;;5032362;28;20239;-80
2022/04/16 13:32:16;;;;;;;10.18;9.88;;;18.30;99.90;;;;;;5041990;28;20236;-80
2022/04/16 13:34:46;;;;;;;10.23;9.93;;;17.90;98.70;;;;;;5041873;28;20227;-80
2022/04/16 13:37:25;;;;;;;10.00;9.70;;;17.80;98.00;;;;;;5042202;28;20242;-84
2022/04/16 13:42:40;;;;;;;10.38;10.07;;;18.30;98.90;;;;;;5052801;28;20207;-83
2022/04/16 13:45:13;;;;;;;10.23;9.93;;;18.20;97.90;;;;;;5038522;28;20250;-83
2022/04/16 13:47:43;;;;;;;10.60;10.30;;;18.60;98.10;;;;;;5042281;28;20281;-82
2022/04/16 13:50:18;;;;;;;10.57;10.27;;;18.60;96.20;;;;;;5041185;28;20289;-82
2022/04/16 13:53:32;;;;;;;10.75;10.45;;;18.60;97.40;;;;;;5030428;28;20257;-83